createdAt,value
2022-11-10T00:01:10.490Z,101745.00
2022-11-10T00:03:39.325Z,101753.00
2022-11-10T00:06:08.455Z,101759.00
2022-11-10T00:08:35.440Z,101754.00
2022-11-10T00:11:07.054Z,101758.00
2022-11-10T00:13:57.019Z,101762.00
2022-11-10T00:16:42.872Z,101762.00
2022-11-10T00:19:09.506Z,101764.00
2022-11-10T00:21:37.270Z,101766.00
2022-11-10T00:24:04.475Z,101766.00
2022-11-10T00:26:31.035Z,101776.00
2022-11-10T00:28:57.594Z,101763.00
2022-11-10T00:31:24.134Z,101768.00
2022-11-10T00:33:50.695Z,101766.00
2022-11-10T00:36:17.289Z,101770.00
2022-11-10T00:38:43.814Z,101771.00
2022-11-10T00:41:10.424Z,101769.00
2022-11-10T00:43:37.029Z,101772.00
2022-11-10T00:46:04.131Z,101773.00
2022-11-10T00:48:30.681Z,101774.00
2022-11-10T00:50:57.279Z,101778.00
2022-11-10T00:53:24.227Z,101780.00
2022-11-10T00:55:51.122Z,101775.00
2022-11-10T00:58:17.939Z,101775.00
2022-11-10T01:00:44.555Z,101771.00
2022-11-10T01:03:15.670Z,101780.00
2022-11-10T01:05:42.722Z,101784.00
2022-11-10T01:08:09.468Z,101789.00
2022-11-10T01:10:36.103Z,101776.00
2022-11-10T01:13:03.729Z,101789.00
2022-11-10T01:15:30.285Z,101782.00
2022-11-10T01:17:56.903Z,101784.00
2022-11-10T01:20:24.222Z,101785.00
2022-11-10T01:22:51.315Z,101793.00
2022-11-10T01:25:17.969Z,101792.00
2022-11-10T01:27:44.610Z,101789.00
2022-11-10T01:30:11.691Z,101796.00
2022-11-10T01:32:38.350Z,101800.00
2022-11-10T01:35:05.907Z,101800.00
2022-11-10T01:37:32.511Z,101810.00
2022-11-10T01:39:59.278Z,101800.00
2022-11-10T01:42:28.131Z,101805.00
2022-11-10T01:45:22.615Z,101799.00
2022-11-10T01:48:16.381Z,101798.00
2022-11-10T01:50:45.643Z,101797.00
2022-11-10T01:53:18.872Z,101805.00
2022-11-10T01:55:48.442Z,101818.00
2022-11-10T01:58:17.575Z,101818.00
2022-11-10T02:00:44.797Z,101818.00
2022-11-10T02:03:18.664Z,101825.00
2022-11-10T02:05:45.462Z,101826.00
2022-11-10T02:08:15.342Z,101830.00
2022-11-10T02:10:42.078Z,101824.00
2022-11-10T02:13:10.162Z,101823.00
2022-11-10T02:15:36.958Z,101827.00
2022-11-10T02:18:03.582Z,101829.00
2022-11-10T02:20:30.165Z,101825.00
2022-11-10T02:22:56.754Z,101829.00
2022-11-10T02:25:27.431Z,101827.00
2022-11-10T02:27:54.074Z,101834.00
2022-11-10T02:30:25.153Z,101841.00
2022-11-10T02:32:53.978Z,101840.00
2022-11-10T02:35:20.555Z,101846.00
2022-11-10T02:37:47.199Z,101850.00
2022-11-10T02:40:13.796Z,101850.00
2022-11-10T02:42:40.374Z,101850.00
2022-11-10T02:45:08.768Z,101851.00
2022-11-10T02:47:35.597Z,101851.00
2022-11-10T02:50:02.157Z,101842.00
2022-11-10T02:52:28.729Z,101854.00
2022-11-10T02:54:55.298Z,101849.00
2022-11-10T02:57:21.887Z,101864.00
2022-11-10T02:59:48.478Z,101869.00
2022-11-10T03:02:15.496Z,101870.00
2022-11-10T03:04:42.239Z,101875.00
2022-11-10T03:07:08.853Z,101873.00
2022-11-10T03:09:35.709Z,101880.00
2022-11-10T03:12:02.300Z,101888.00
2022-11-10T03:14:28.888Z,101885.00
2022-11-10T03:16:55.460Z,101885.00
2022-11-10T03:19:22.037Z,101886.00
2022-11-10T03:21:48.591Z,101890.00
2022-11-10T03:24:15.188Z,101882.00
2022-11-10T03:26:41.817Z,101893.00
2022-11-10T03:29:08.468Z,101892.00
2022-11-10T03:31:35.089Z,101901.00
2022-11-10T03:34:01.649Z,101896.00
2022-11-10T03:36:28.224Z,101903.00
2022-11-10T03:38:54.736Z,101901.00
2022-11-10T03:41:21.380Z,101908.00
2022-11-10T03:43:49.399Z,101915.00
2022-11-10T03:46:16.694Z,101918.00
2022-11-10T03:48:45.370Z,101915.00
2022-11-10T03:51:15.508Z,101933.00
2022-11-10T03:53:42.132Z,101924.00
2022-11-10T03:56:09.155Z,101930.00
2022-11-10T03:58:36.769Z,101936.00
2022-11-10T04:01:03.456Z,101937.00
2022-11-10T04:03:30.041Z,101934.00
2022-11-10T04:06:15.322Z,101946.00
2022-11-10T04:09:00.025Z,101941.00
2022-11-10T04:11:49.263Z,101945.00
2022-11-10T04:14:35.109Z,101951.00
2022-11-10T04:17:02.625Z,101946.00
2022-11-10T04:19:29.564Z,101947.00
2022-11-10T04:21:56.814Z,101945.00
2022-11-10T04:24:23.470Z,101957.00
2022-11-10T04:26:50.401Z,101957.00
2022-11-10T04:29:19.241Z,101960.00
2022-11-10T04:31:46.462Z,101960.00
2022-11-10T04:34:14.990Z,101962.00
2022-11-10T04:36:43.463Z,101959.00
2022-11-10T04:39:11.102Z,101968.00
2022-11-10T04:41:38.526Z,101957.00
2022-11-10T04:44:05.520Z,101960.00
2022-11-10T04:46:37.923Z,101970.00
2022-11-10T04:49:05.521Z,101964.00
2022-11-10T04:51:38.527Z,101968.00
2022-11-10T04:54:06.499Z,101976.00
2022-11-10T04:56:34.612Z,101977.00
2022-11-10T04:59:01.276Z,101982.00
2022-11-10T05:01:27.987Z,101984.00
2022-11-10T05:03:55.553Z,101980.00
2022-11-10T05:06:22.450Z,101988.00
2022-11-10T05:08:49.065Z,101987.00
2022-11-10T05:11:16.266Z,101997.00
2022-11-10T05:13:43.991Z,101995.00
2022-11-10T05:16:11.369Z,101996.00
2022-11-10T05:18:37.964Z,102011.00
2022-11-10T05:21:04.654Z,102003.00
2022-11-10T05:23:40.427Z,101999.00
2022-11-10T05:26:12.680Z,102013.00
2022-11-10T05:28:40.541Z,102011.00
2022-11-10T05:31:07.419Z,102018.00
2022-11-10T05:33:35.109Z,102027.00
2022-11-10T05:36:02.431Z,102029.00
2022-11-10T05:38:29.030Z,102030.00
2022-11-10T05:40:55.949Z,102033.00
2022-11-10T05:43:23.052Z,102036.00
2022-11-10T05:45:50.218Z,102029.00
2022-11-10T05:48:16.815Z,102023.00
2022-11-10T05:50:44.736Z,102032.00
2022-11-10T05:53:11.759Z,102028.00
2022-11-10T05:55:38.428Z,102030.00
2022-11-10T05:58:05.212Z,102026.00
2022-11-10T06:00:33.068Z,102033.00
2022-11-10T06:03:02.246Z,102036.00
2022-11-10T06:05:31.727Z,102048.00
2022-11-10T06:07:59.011Z,102033.00
2022-11-10T06:10:26.338Z,102049.00
2022-11-10T06:12:53.174Z,102059.00
2022-11-10T06:15:20.491Z,102050.00
2022-11-10T06:17:47.256Z,102051.00
2022-11-10T06:20:15.213Z,102056.00
2022-11-10T06:22:41.801Z,102061.00
2022-11-10T06:25:09.714Z,102066.00
2022-11-10T06:27:36.311Z,102069.00
2022-11-10T06:30:03.813Z,102070.00
2022-11-10T06:32:30.417Z,102079.00
2022-11-10T06:35:00.497Z,102068.00
2022-11-10T06:37:27.644Z,102068.00
2022-11-10T06:39:54.229Z,102075.00
2022-11-10T06:42:20.816Z,102072.00
2022-11-10T06:44:47.357Z,102084.00
2022-11-10T06:47:15.100Z,102091.00
2022-11-10T06:49:41.698Z,102094.00
2022-11-10T06:52:08.332Z,102095.00
2022-11-10T06:54:34.866Z,102089.00
2022-11-10T06:57:01.460Z,102088.00
2022-11-10T06:59:28.024Z,102090.00
2022-11-10T07:01:54.703Z,102087.00
2022-11-10T07:04:21.402Z,102103.00
2022-11-10T07:06:48.047Z,102106.00
2022-11-10T07:09:15.344Z,102103.00
2022-11-10T07:11:42.184Z,102106.00
2022-11-10T07:14:09.055Z,102117.00
2022-11-10T07:16:35.643Z,102125.00
2022-11-10T07:19:02.277Z,102130.00
2022-11-10T07:21:29.139Z,102140.00
2022-11-10T07:23:55.694Z,102140.00
2022-11-10T07:26:22.334Z,102146.00
2022-11-10T07:28:48.929Z,102155.00
2022-11-10T07:31:15.506Z,102149.00
2022-11-10T07:33:44.060Z,102147.00
2022-11-10T07:36:10.684Z,102146.00
2022-11-10T07:38:37.256Z,102154.00
2022-11-10T07:41:03.853Z,102153.00
2022-11-10T07:43:31.562Z,102140.00
2022-11-10T07:45:58.205Z,102138.00
2022-11-10T07:48:24.739Z,102158.00
2022-11-10T07:50:51.371Z,102152.00
2022-11-10T07:53:20.880Z,102167.00
2022-11-10T07:55:47.877Z,102165.00
2022-11-10T07:58:17.624Z,102160.00
2022-11-10T08:00:45.341Z,102156.00
2022-11-10T08:03:17.410Z,102143.00
2022-11-10T08:05:44.450Z,102153.00
2022-11-10T08:08:11.824Z,102163.00
2022-11-10T08:10:39.626Z,102161.00
2022-11-10T08:13:08.862Z,102175.00
2022-11-10T08:15:35.853Z,102185.00
2022-11-10T08:18:04.399Z,102185.00
2022-11-10T08:20:31.328Z,102204.00
2022-11-10T08:23:03.220Z,102203.00
2022-11-10T08:25:34.850Z,102215.00
2022-11-10T08:28:20.547Z,102219.00
2022-11-10T08:30:48.890Z,102225.00
2022-11-10T08:33:18.097Z,102223.00
2022-11-10T08:35:50.285Z,102225.00
2022-11-10T08:38:19.628Z,102238.00
2022-11-10T08:40:46.335Z,102223.00
2022-11-10T08:43:13.823Z,102223.00
2022-11-10T08:45:43.077Z,102224.00
2022-11-10T08:48:20.476Z,102225.00
2022-11-10T08:50:49.538Z,102229.00
2022-11-10T08:53:20.309Z,102229.00
2022-11-10T08:55:47.364Z,102219.00
2022-11-10T08:58:23.341Z,102218.00
2022-11-10T09:00:50.615Z,102229.00
2022-11-10T09:03:23.767Z,102219.00
2022-11-10T09:05:57.730Z,102211.00
2022-11-10T09:08:25.093Z,102201.00
2022-11-10T09:10:51.699Z,102200.00
2022-11-10T09:13:26.110Z,102208.00
2022-11-10T09:15:56.310Z,102198.00
2022-11-10T09:18:22.951Z,102198.00
2022-11-10T09:20:49.545Z,102202.00
2022-11-10T09:23:18.676Z,102209.00
2022-11-10T09:25:51.106Z,102215.00
2022-11-10T09:28:17.797Z,102216.00
2022-11-10T09:30:49.568Z,102218.00
2022-11-10T09:33:19.929Z,102224.00
2022-11-10T09:35:46.717Z,102233.00
2022-11-10T09:38:13.302Z,102235.00
2022-11-10T09:40:48.268Z,102235.00
2022-11-10T09:43:21.898Z,102235.00
2022-11-10T09:45:51.348Z,102252.00
2022-11-10T09:48:31.433Z,102263.00
2022-11-10T09:51:19.663Z,102261.00
2022-11-10T09:53:55.122Z,102259.00
2022-11-10T09:56:30.279Z,102266.00
2022-11-10T09:58:56.933Z,102275.00
2022-11-10T10:01:26.605Z,102295.00
2022-11-10T10:04:14.091Z,102315.00
2022-11-10T10:07:10.203Z,102322.00
2022-11-10T10:09:59.086Z,102327.00
2022-11-10T10:12:44.251Z,102339.00
2022-11-10T10:15:25.354Z,102330.00
2022-11-10T10:18:13.153Z,102335.00
2022-11-10T10:20:48.741Z,102332.00
2022-11-10T10:24:07.151Z,102338.00
2022-11-10T10:26:27.654Z,102341.00
2022-11-10T10:28:55.434Z,102343.00
2022-11-10T10:31:25.308Z,102338.00
2022-11-10T10:33:53.453Z,102345.00
2022-11-10T10:36:25.610Z,102345.00
2022-11-10T10:39:06.349Z,102352.00
2022-11-10T10:41:34.667Z,102352.00
2022-11-10T10:44:08.757Z,102355.00
2022-11-10T10:46:46.094Z,102351.00
2022-11-10T10:49:29.997Z,102364.00
2022-11-10T10:52:14.734Z,102365.00
2022-11-10T10:54:41.413Z,102381.00
2022-11-10T10:57:23.261Z,102386.00
2022-11-10T10:59:50.748Z,102395.00
2022-11-10T11:02:29.592Z,102394.00
2022-11-10T11:05:10.456Z,102377.00
2022-11-10T11:07:37.134Z,102389.00
2022-11-10T11:10:17.085Z,102391.00
2022-11-10T11:12:44.033Z,102389.00
2022-11-10T11:15:22.724Z,102391.00
2022-11-10T11:18:05.421Z,102389.00
2022-11-10T11:20:43.465Z,102403.00
2022-11-10T11:23:24.253Z,102391.00
2022-11-10T11:25:52.761Z,102395.00
2022-11-10T11:28:39.545Z,102402.00
2022-11-10T11:31:22.854Z,102393.00
2022-11-10T11:33:51.727Z,102402.00
2022-11-10T11:36:18.230Z,102419.00
2022-11-10T11:38:53.292Z,102422.00
2022-11-10T11:41:40.851Z,102419.00
2022-11-10T11:44:40.456Z,102413.00
2022-11-10T11:47:33.774Z,102416.00
2022-11-10T11:50:15.418Z,102414.00
2022-11-10T11:53:05.287Z,102400.00
2022-11-10T11:56:18.038Z,102414.00
2022-11-10T11:59:02.418Z,102409.00
2022-11-10T12:01:31.992Z,102413.00
2022-11-10T12:04:35.509Z,102413.00
2022-11-10T12:07:14.003Z,102417.00
2022-11-10T12:09:40.498Z,102428.00
2022-11-10T12:12:31.298Z,102414.00
2022-11-10T12:15:22.788Z,102423.00
2022-11-10T12:18:03.473Z,102424.00
2022-11-10T12:20:58.565Z,102433.00
2022-11-10T12:23:43.281Z,102433.00
2022-11-10T12:26:18.974Z,102427.00
2022-11-10T12:29:16.077Z,102429.00
2022-11-10T12:31:46.867Z,102417.00
2022-11-10T12:34:45.810Z,102429.00
2022-11-10T12:37:28.248Z,102423.00
2022-11-10T12:40:41.587Z,102420.00
2022-11-10T12:43:32.444Z,102414.00
2022-11-10T12:46:02.021Z,102416.00
2022-11-10T12:48:38.905Z,102408.00
2022-11-10T12:51:17.409Z,102407.00
2022-11-10T12:53:45.828Z,102408.00
2022-11-10T12:56:34.229Z,102412.00
2022-11-10T12:59:19.319Z,102406.00
2022-11-10T13:01:49.282Z,102398.00
2022-11-10T13:04:18.199Z,102395.00
2022-11-10T13:06:55.626Z,102382.00
2022-11-10T13:09:28.033Z,102363.00
2022-11-10T13:12:24.932Z,102357.00
2022-11-10T13:14:51.539Z,102360.00
2022-11-10T13:17:27.152Z,102359.00
2022-11-10T13:19:58.981Z,102361.00
2022-11-10T13:22:36.958Z,102352.00
2022-11-10T13:25:37.641Z,102363.00
2022-11-10T13:28:07.914Z,102366.00
2022-11-10T13:30:46.203Z,102367.00
2022-11-10T13:33:27.869Z,102371.00
2022-11-10T13:35:56.632Z,102377.00
2022-11-10T13:38:32.103Z,102387.00
2022-11-10T13:41:34.725Z,102386.00
2022-11-10T13:44:20.098Z,102374.00
2022-11-10T13:47:05.933Z,102382.00
2022-11-10T13:49:51.505Z,102385.00
2022-11-10T13:52:43.407Z,102385.00
2022-11-10T13:55:21.868Z,102387.00
2022-11-10T13:57:57.017Z,102389.00
2022-11-10T14:00:33.121Z,102392.00
2022-11-10T14:03:07.143Z,102384.00
2022-11-10T14:05:38.599Z,102387.00
2022-11-10T14:08:16.854Z,102386.00
2022-11-10T14:11:02.606Z,102393.00
2022-11-10T14:13:32.096Z,102386.00
2022-11-10T14:15:59.326Z,102392.00
2022-11-10T14:18:47.956Z,102391.00
2022-11-10T14:21:23.138Z,102399.00
2022-11-10T14:23:55.865Z,102403.00
2022-11-10T14:26:35.392Z,102408.00
2022-11-10T14:29:40.145Z,102413.00
2022-11-10T14:32:25.087Z,102414.00
2022-11-10T14:34:54.125Z,102406.00
2022-11-10T14:37:28.731Z,102408.00
2022-11-10T14:39:58.668Z,102413.00
2022-11-10T14:42:33.011Z,102420.00
2022-11-10T14:45:29.583Z,102430.00
2022-11-10T14:47:59.344Z,102435.00
2022-11-10T14:50:35.021Z,102443.00
2022-11-10T14:53:07.057Z,102441.00
2022-11-10T14:55:36.358Z,102448.00
2022-11-10T14:58:23.230Z,102444.00
2022-11-10T15:00:50.902Z,102445.00
2022-11-10T15:03:31.057Z,102436.00
2022-11-10T15:05:57.738Z,102441.00
2022-11-10T15:08:25.475Z,102438.00
2022-11-10T15:10:53.356Z,102431.00
2022-11-10T15:13:36.025Z,102435.00
2022-11-10T15:16:25.791Z,102438.00
2022-11-10T15:18:54.982Z,102436.00
2022-11-10T15:21:30.774Z,102434.00
2022-11-10T15:24:01.738Z,102439.00
2022-11-10T15:26:33.450Z,102440.00
2022-11-10T15:29:00.311Z,102444.00
2022-11-10T15:31:29.977Z,102448.00
2022-11-10T15:34:01.739Z,102454.00
2022-11-10T15:36:34.629Z,102458.00
2022-11-10T15:39:10.198Z,102469.00
2022-11-10T15:41:38.237Z,102466.00
2022-11-10T15:44:25.850Z,102471.00
2022-11-10T15:46:55.111Z,102472.00
2022-11-10T15:49:41.113Z,102484.00
2022-11-10T15:52:22.690Z,102494.00
2022-11-10T15:54:52.121Z,102491.00
2022-11-10T15:57:19.535Z,102490.00
2022-11-10T15:59:46.178Z,102495.00
2022-11-10T16:02:22.171Z,102504.00
2022-11-10T16:04:59.520Z,102500.00
2022-11-10T16:07:26.808Z,102506.00
2022-11-10T16:09:53.379Z,102508.00
2022-11-10T16:12:21.905Z,102512.00
2022-11-10T16:14:51.319Z,102521.00
2022-11-10T16:17:18.376Z,102524.00
2022-11-10T16:19:46.758Z,102516.00
2022-11-10T16:22:13.649Z,102515.00
2022-11-10T16:24:40.977Z,102517.00
2022-11-10T16:27:12.311Z,102517.00
2022-11-10T16:29:38.987Z,102517.00
2022-11-10T16:32:05.808Z,102510.00
2022-11-10T16:34:32.457Z,102511.00
2022-11-10T16:37:00.121Z,102517.00
2022-11-10T16:39:27.661Z,102519.00
2022-11-10T16:41:57.199Z,102514.00
2022-11-10T16:44:25.498Z,102514.00
2022-11-10T16:46:55.976Z,102512.00
2022-11-10T16:49:31.704Z,102516.00
2022-11-10T16:51:58.718Z,102512.00
2022-11-10T16:54:25.443Z,102514.00
2022-11-10T16:56:52.152Z,102511.00
2022-11-10T16:59:18.944Z,102520.00
2022-11-10T17:01:46.754Z,102511.00
2022-11-10T17:04:16.848Z,102506.00
2022-11-10T17:06:43.799Z,102505.00
2022-11-10T17:09:17.814Z,102510.00
2022-11-10T17:11:44.836Z,102516.00
2022-11-10T17:14:13.168Z,102524.00
2022-11-10T17:16:43.503Z,102533.00
2022-11-10T17:19:25.131Z,102528.00
2022-11-10T17:21:53.915Z,102535.00
2022-11-10T17:24:21.177Z,102535.00
2022-11-10T17:26:48.255Z,102534.00
2022-11-10T17:29:21.158Z,102546.00
2022-11-10T17:31:50.380Z,102543.00
2022-11-10T17:34:17.066Z,102545.00
2022-11-10T17:36:43.768Z,102546.00
2022-11-10T17:39:14.435Z,102551.00
2022-11-10T17:41:41.037Z,102552.00
2022-11-10T17:44:16.294Z,102564.00
2022-11-10T17:46:43.274Z,102557.00
2022-11-10T17:49:09.909Z,102547.00
2022-11-10T17:51:37.134Z,102544.00
2022-11-10T17:54:05.837Z,102549.00
2022-11-10T17:56:32.830Z,102560.00
2022-11-10T17:58:59.981Z,102552.00
2022-11-10T18:01:26.628Z,102557.00
2022-11-10T18:03:56.322Z,102548.00
2022-11-10T18:06:22.937Z,102544.00
2022-11-10T18:08:49.630Z,102554.00
2022-11-10T18:11:20.869Z,102551.00
2022-11-10T18:13:47.619Z,102543.00
2022-11-10T18:16:14.594Z,102532.00
2022-11-10T18:18:41.662Z,102533.00
2022-11-10T18:21:09.520Z,102540.00
2022-11-10T18:23:36.077Z,102537.00
2022-11-10T18:26:06.388Z,102555.00
2022-11-10T18:28:34.056Z,102557.00
2022-11-10T18:31:08.485Z,102556.00
2022-11-10T18:33:36.077Z,102554.00
2022-11-10T18:36:02.863Z,102570.00
2022-11-10T18:38:29.616Z,102573.00
2022-11-10T18:40:56.197Z,102576.00
2022-11-10T18:43:23.000Z,102582.00
2022-11-10T18:45:53.983Z,102581.00
2022-11-10T18:48:24.304Z,102589.00
2022-11-10T18:50:53.822Z,102587.00
2022-11-10T18:53:20.575Z,102606.00
2022-11-10T18:55:56.625Z,102607.00
2022-11-10T18:58:23.220Z,102604.00
2022-11-10T19:00:49.862Z,102596.00
2022-11-10T19:03:16.520Z,102602.00
2022-11-10T19:05:43.074Z,102592.00
2022-11-10T19:08:12.193Z,102594.00
2022-11-10T19:10:42.565Z,102596.00
2022-11-10T19:13:09.301Z,102599.00
2022-11-10T19:15:41.011Z,102616.00
2022-11-10T19:18:07.730Z,102606.00
2022-11-10T19:20:37.937Z,102602.00
2022-11-10T19:23:07.053Z,102616.00
2022-11-10T19:25:33.907Z,102612.00
2022-11-10T19:28:00.532Z,102615.00
2022-11-10T19:30:27.113Z,102624.00
2022-11-10T19:32:53.756Z,102628.00
2022-11-10T19:35:20.373Z,102623.00
2022-11-10T19:37:52.413Z,102609.00
2022-11-10T19:40:19.018Z,102613.00
2022-11-10T19:42:45.574Z,102612.00
2022-11-10T19:45:13.672Z,102607.00
2022-11-10T19:47:40.259Z,102602.00
2022-11-10T19:50:07.268Z,102613.00
2022-11-10T19:52:34.338Z,102608.00
2022-11-10T19:55:03.438Z,102619.00
2022-11-10T19:57:30.229Z,102610.00
2022-11-10T19:59:56.886Z,102598.00
2022-11-10T20:02:23.577Z,102584.00
2022-11-10T20:05:11.373Z,102584.00
2022-11-10T20:07:56.745Z,102600.00
2022-11-10T20:10:23.765Z,102615.00
2022-11-10T20:12:50.351Z,102622.00
2022-11-10T20:15:17.623Z,102621.00
2022-11-10T20:17:44.163Z,102612.00
2022-11-10T20:20:10.997Z,102615.00
2022-11-10T20:22:37.705Z,102620.00
2022-11-10T20:25:04.762Z,102612.00
2022-11-10T20:27:31.543Z,102617.00
2022-11-10T20:29:58.296Z,102620.00
2022-11-10T20:32:26.442Z,102632.00
2022-11-10T20:34:53.215Z,102635.00
2022-11-10T20:37:19.917Z,102647.00
2022-11-10T20:39:46.599Z,102629.00
2022-11-10T20:42:14.189Z,102626.00
2022-11-10T20:44:40.953Z,102631.00
2022-11-10T20:47:07.543Z,102632.00
2022-11-10T20:49:34.232Z,102644.00
2022-11-10T20:52:00.950Z,102644.00
2022-11-10T20:54:27.818Z,102645.00
2022-11-10T20:56:54.641Z,102656.00
2022-11-10T20:59:21.238Z,102665.00
2022-11-10T21:01:48.027Z,102664.00
2022-11-10T21:04:14.802Z,102681.00
2022-11-10T21:06:41.406Z,102670.00
2022-11-10T21:09:08.336Z,102668.00
2022-11-10T21:11:53.730Z,102669.00
2022-11-10T21:14:20.322Z,102679.00
2022-11-10T21:16:46.968Z,102680.00
2022-11-10T21:19:13.556Z,102691.00
2022-11-10T21:21:40.262Z,102692.00
2022-11-10T21:24:07.716Z,102702.00
2022-11-10T21:26:35.627Z,102711.00
2022-11-10T21:29:02.965Z,102716.00
2022-11-10T21:31:30.746Z,102718.00
2022-11-10T21:34:00.504Z,102730.00
2022-11-10T21:36:29.577Z,102722.00
2022-11-10T21:38:57.639Z,102723.00
2022-11-10T21:41:25.138Z,102723.00
2022-11-10T21:43:51.726Z,102731.00
2022-11-10T21:46:18.410Z,102740.00
2022-11-10T21:48:45.127Z,102743.00
2022-11-10T21:51:14.090Z,102748.00
2022-11-10T21:53:41.979Z,102747.00
2022-11-10T21:56:12.695Z,102743.00
2022-11-10T21:58:39.844Z,102750.00
2022-11-10T22:01:09.865Z,102758.00
2022-11-10T22:03:36.994Z,102755.00
2022-11-10T22:06:13.172Z,102744.00
2022-11-10T22:08:41.104Z,102730.00
2022-11-10T22:11:34.168Z,102744.00
2022-11-10T22:14:16.010Z,102747.00
2022-11-10T22:17:05.230Z,102747.00
2022-11-10T22:19:33.037Z,102750.00
2022-11-10T22:22:03.450Z,102753.00
2022-11-10T22:24:30.812Z,102745.00
2022-11-10T22:26:59.506Z,102738.00
2022-11-10T22:29:31.408Z,102746.00
2022-11-10T22:32:01.898Z,102742.00
2022-11-10T22:34:28.983Z,102746.00
2022-11-10T22:36:55.899Z,102748.00
2022-11-10T22:39:22.498Z,102750.00
2022-11-10T22:42:07.551Z,102759.00
2022-11-10T22:44:34.140Z,102758.00
2022-11-10T22:47:00.848Z,102759.00
2022-11-10T22:49:27.440Z,102761.00
2022-11-10T22:51:55.353Z,102759.00
2022-11-10T22:54:24.097Z,102761.00
2022-11-10T22:56:53.118Z,102763.00
2022-11-10T22:59:20.362Z,102766.00
2022-11-10T23:01:47.136Z,102762.00
2022-11-10T23:04:16.012Z,102766.00
2022-11-10T23:06:43.577Z,102770.00
2022-11-10T23:09:10.227Z,102763.00
2022-11-10T23:11:36.868Z,102769.00
2022-11-10T23:14:03.469Z,102767.00
2022-11-10T23:16:35.738Z,102775.00
2022-11-10T23:19:02.312Z,102780.00
2022-11-10T23:21:29.907Z,102771.00
2022-11-10T23:23:56.844Z,102764.00
2022-11-10T23:26:26.825Z,102774.00
2022-11-10T23:28:54.269Z,102774.00
2022-11-10T23:31:23.507Z,102765.00
2022-11-10T23:33:53.064Z,102779.00
2022-11-10T23:36:21.153Z,102781.00
2022-11-10T23:38:51.142Z,102769.00
2022-11-10T23:41:20.749Z,102763.00
2022-11-10T23:43:47.582Z,102761.00
2022-11-10T23:46:14.766Z,102763.00
2022-11-10T23:48:41.820Z,102760.00
2022-11-10T23:51:12.215Z,102762.00
2022-11-10T23:53:39.137Z,102748.00
2022-11-10T23:56:11.909Z,102754.00
2022-11-10T23:58:38.573Z,102749.00
